sensor_id;sensor_type;location;lat;lon;timestamp;P1;durP1;ratioP1;P2;durP2;ratioP2
1294;SDS011;640;48.310;11.728;2022-07-23T00:01:31;9.73;;;8.57;;
1294;SDS011;640;48.310;11.728;2022-07-23T00:04:00;9.40;;;8.40;;
1294;SDS011;640;48.310;11.728;2022-07-23T00:06:29;9.98;;;8.55;;
1294;SDS011;640;48.310;11.728;2022-07-23T00:08:57;9.13;;;8.18;;
1294;SDS011;640;48.310;11.728;2022-07-23T00:11:26;10.13;;;8.75;;
1294;SDS011;640;48.310;11.728;2022-07-23T00:13:54;9.82;;;8.10;;
1294;SDS011;640;48.310;11.728;2022-07-23T00:16:26;10.98;;;8.43;;
1294;SDS011;640;48.310;11.728;2022-07-23T00:18:56;9.88;;;8.35;;
1294;SDS011;640;48.310;11.728;2022-07-23T00:21:25;10.38;;;8.70;;
1294;SDS011;640;48.310;11.728;2022-07-23T00:23:53;12.20;;;8.45;;
1294;SDS011;640;48.310;11.728;2022-07-23T00:26:21;9.65;;;8.32;;
1294;SDS011;640;48.310;11.728;2022-07-23T00:28:50;10.02;;;8.20;;
1294;SDS011;640;48.310;11.728;2022-07-23T00:31:18;10.00;;;8.88;;
1294;SDS011;640;48.310;11.728;2022-07-23T00:33:48;14.75;;;8.48;;
1294;SDS011;640;48.310;11.728;2022-07-23T00:36:16;9.30;;;8.40;;
1294;SDS011;640;48.310;11.728;2022-07-23T00:38:45;9.80;;;8.65;;
1294;SDS011;640;48.310;11.728;2022-07-23T00:41:13;10.18;;;8.98;;
1294;SDS011;640;48.310;11.728;2022-07-23T00:43:41;9.85;;;8.50;;
1294;SDS011;640;48.310;11.728;2022-07-23T00:46:09;9.63;;;8.68;;
1294;SDS011;640;48.310;11.728;2022-07-23T00:48:38;10.10;;;8.40;;
1294;SDS011;640;48.310;11.728;2022-07-23T00:51:08;9.93;;;8.93;;
1294;SDS011;640;48.310;11.728;2022-07-23T00:53:36;9.40;;;8.50;;
1294;SDS011;640;48.310;11.728;2022-07-23T00:56:05;9.98;;;8.98;;
1294;SDS011;640;48.310;11.728;2022-07-23T00:58:34;9.85;;;8.88;;
1294;SDS011;640;48.310;11.728;2022-07-23T01:01:03;9.80;;;8.80;;
1294;SDS011;640;48.310;11.728;2022-07-23T01:03:32;10.10;;;9.20;;
1294;SDS011;640;48.310;11.728;2022-07-23T01:06:00;12.30;;;9.35;;
1294;SDS011;640;48.310;11.728;2022-07-23T01:08:30;11.82;;;9.23;;
1294;SDS011;640;48.310;11.728;2022-07-23T01:10:58;12.75;;;9.07;;
1294;SDS011;640;48.310;11.728;2022-07-23T01:13:26;10.80;;;9.02;;
1294;SDS011;640;48.310;11.728;2022-07-23T01:15:55;11.45;;;9.40;;
1294;SDS011;640;48.310;11.728;2022-07-23T01:18:23;11.75;;;9.48;;
1294;SDS011;640;48.310;11.728;2022-07-23T01:20:51;10.23;;;8.80;;
1294;SDS011;640;48.310;11.728;2022-07-23T01:23:21;8.35;;;7.43;;
1294;SDS011;640;48.310;11.728;2022-07-23T01:25:51;11.93;;;8.32;;
1294;SDS011;640;48.310;11.728;2022-07-23T01:28:20;10.18;;;7.13;;
1294;SDS011;640;48.310;11.728;2022-07-23T01:30:49;14.02;;;9.13;;
1294;SDS011;640;48.310;11.728;2022-07-23T01:33:17;16.20;;;7.47;;
1294;SDS011;640;48.310;11.728;2022-07-23T01:35:45;11.02;;;7.65;;
1294;SDS011;640;48.310;11.728;2022-07-23T01:38:14;8.77;;;6.57;;
1294;SDS011;640;48.310;11.728;2022-07-23T01:40:44;12.38;;;5.30;;
1294;SDS011;640;48.310;11.728;2022-07-23T01:43:18;10.00;;;5.47;;
1294;SDS011;640;48.310;11.728;2022-07-23T01:45:46;10.70;;;6.90;;
1294;SDS011;640;48.310;11.728;2022-07-23T01:48:15;16.70;;;5.80;;
1294;SDS011;640;48.310;11.728;2022-07-23T01:50:43;10.98;;;6.40;;
1294;SDS011;640;48.310;11.728;2022-07-23T01:55:43;8.00;;;5.78;;
1294;SDS011;640;48.310;11.728;2022-07-23T01:58:11;10.23;;;6.10;;
1294;SDS011;640;48.310;11.728;2022-07-23T02:00:40;8.02;;;5.45;;
1294;SDS011;640;48.310;11.728;2022-07-23T02:03:09;6.97;;;6.27;;
1294;SDS011;640;48.310;11.728;2022-07-23T02:05:37;13.93;;;6.50;;
1294;SDS011;640;48.310;11.728;2022-07-23T02:08:06;10.85;;;6.72;;
1294;SDS011;640;48.310;11.728;2022-07-23T02:10:35;10.13;;;6.05;;
1294;SDS011;640;48.310;11.728;2022-07-23T02:13:05;8.80;;;6.35;;
1294;SDS011;640;48.310;11.728;2022-07-23T02:15:33;10.05;;;6.47;;
1294;SDS011;640;48.310;11.728;2022-07-23T02:18:01;16.73;;;5.93;;
1294;SDS011;640;48.310;11.728;2022-07-23T02:20:30;8.55;;;4.97;;
1294;SDS011;640;48.310;11.728;2022-07-23T02:22:58;7.55;;;4.38;;
1294;SDS011;640;48.310;11.728;2022-07-23T02:25:27;8.02;;;4.93;;
1294;SDS011;640;48.310;11.728;2022-07-23T02:27:55;7.28;;;4.57;;
1294;SDS011;640;48.310;11.728;2022-07-23T02:30:25;7.28;;;5.40;;
1294;SDS011;640;48.310;11.728;2022-07-23T02:32:53;9.30;;;5.43;;
1294;SDS011;640;48.310;11.728;2022-07-23T02:35:22;7.63;;;5.78;;
1294;SDS011;640;48.310;11.728;2022-07-23T02:37:50;8.15;;;5.82;;
1294;SDS011;640;48.310;11.728;2022-07-23T02:40:18;10.05;;;5.82;;
1294;SDS011;640;48.310;11.728;2022-07-23T02:42:47;8.82;;;5.25;;
1294;SDS011;640;48.310;11.728;2022-07-23T02:45:15;10.23;;;6.40;;
1294;SDS011;640;48.310;11.728;2022-07-23T02:47:45;6.53;;;5.38;;
1294;SDS011;640;48.310;11.728;2022-07-23T02:50:13;6.93;;;5.90;;
1294;SDS011;640;48.310;11.728;2022-07-23T02:52:42;7.75;;;5.53;;
1294;SDS011;640;48.310;11.728;2022-07-23T02:55:10;16.00;;;6.15;;
1294;SDS011;640;48.310;11.728;2022-07-23T02:57:38;14.65;;;5.90;;
1294;SDS011;640;48.310;11.728;2022-07-23T03:00:07;10.25;;;5.93;;
1294;SDS011;640;48.310;11.728;2022-07-23T03:02:36;18.40;;;6.25;;
1294;SDS011;640;48.310;11.728;2022-07-23T03:05:06;8.18;;;6.50;;
1294;SDS011;640;48.310;11.728;2022-07-23T03:07:35;10.52;;;6.85;;
1294;SDS011;640;48.310;11.728;2022-07-23T03:10:04;20.80;;;6.82;;
1294;SDS011;640;48.310;11.728;2022-07-23T03:12:33;10.00;;;6.95;;
1294;SDS011;640;48.310;11.728;2022-07-23T03:15:01;11.65;;;6.57;;
1294;SDS011;640;48.310;11.728;2022-07-23T03:17:29;9.23;;;7.20;;
1294;SDS011;640;48.310;11.728;2022-07-23T03:19:58;10.02;;;7.53;;
1294;SDS011;640;48.310;11.728;2022-07-23T03:22:27;11.38;;;6.72;;
1294;SDS011;640;48.310;11.728;2022-07-23T03:24:56;9.43;;;7.68;;
1294;SDS011;640;48.310;11.728;2022-07-23T03:27:25;10.75;;;7.88;;
1294;SDS011;640;48.310;11.728;2022-07-23T03:29:54;9.02;;;7.20;;
1294;SDS011;640;48.310;11.728;2022-07-23T03:32:24;10.50;;;7.30;;
1294;SDS011;640;48.310;11.728;2022-07-23T03:34:53;9.00;;;6.10;;
1294;SDS011;640;48.310;11.728;2022-07-23T03:37:22;8.18;;;6.40;;
1294;SDS011;640;48.310;11.728;2022-07-23T03:39:52;7.85;;;6.47;;
1294;SDS011;640;48.310;11.728;2022-07-23T03:42:20;8.68;;;6.28;;
1294;SDS011;640;48.310;11.728;2022-07-23T03:44:49;8.13;;;6.20;;
1294;SDS011;640;48.310;11.728;2022-07-23T03:47:17;8.15;;;6.18;;
1294;SDS011;640;48.310;11.728;2022-07-23T03:49:49;11.13;;;6.13;;
1294;SDS011;640;48.310;11.728;2022-07-23T03:52:17;8.77;;;6.07;;
1294;SDS011;640;48.310;11.728;2022-07-23T03:54:46;8.45;;;5.72;;
1294;SDS011;640;48.310;11.728;2022-07-23T03:57:15;9.65;;;5.88;;
1294;SDS011;640;48.310;11.728;2022-07-23T03:59:44;9.27;;;6.50;;
1294;SDS011;640;48.310;11.728;2022-07-23T04:02:12;9.23;;;6.10;;
1294;SDS011;640;48.310;11.728;2022-07-23T04:04:40;9.57;;;5.90;;
1294;SDS011;640;48.310;11.728;2022-07-23T04:07:09;8.00;;;5.40;;
1294;SDS011;640;48.310;11.728;2022-07-23T04:09:37;8.23;;;6.10;;
1294;SDS011;640;48.310;11.728;2022-07-23T04:12:12;7.30;;;5.60;;
1294;SDS011;640;48.310;11.728;2022-07-23T04:14:41;7.07;;;5.20;;
1294;SDS011;640;48.310;11.728;2022-07-23T04:17:10;6.93;;;5.60;;
1294;SDS011;640;48.310;11.728;2022-07-23T04:19:39;6.18;;;5.30;;
1294;SDS011;640;48.310;11.728;2022-07-23T04:22:08;6.65;;;5.20;;
1294;SDS011;640;48.310;11.728;2022-07-23T04:24:37;8.60;;;5.35;;
1294;SDS011;640;48.310;11.728;2022-07-23T04:27:05;5.47;;;4.97;;
1294;SDS011;640;48.310;11.728;2022-07-23T04:29:34;6.53;;;5.20;;
1294;SDS011;640;48.310;11.728;2022-07-23T04:32:04;6.60;;;4.88;;
1294;SDS011;640;48.310;11.728;2022-07-23T04:37:01;10.55;;;4.80;;
1294;SDS011;640;48.310;11.728;2022-07-23T04:39:29;7.20;;;5.05;;
1294;SDS011;640;48.310;11.728;2022-07-23T04:41:58;6.90;;;5.10;;
1294;SDS011;640;48.310;11.728;2022-07-23T04:44:26;5.95;;;4.75;;
1294;SDS011;640;48.310;11.728;2022-07-23T04:46:55;6.47;;;5.03;;
1294;SDS011;640;48.310;11.728;2022-07-23T04:49:25;7.60;;;5.30;;
1294;SDS011;640;48.310;11.728;2022-07-23T04:51:53;6.53;;;5.25;;
1294;SDS011;640;48.310;11.728;2022-07-23T04:54:21;6.65;;;5.13;;
1294;SDS011;640;48.310;11.728;2022-07-23T04:56:50;8.00;;;5.30;;
1294;SDS011;640;48.310;11.728;2022-07-23T04:59:18;6.97;;;5.03;;
1294;SDS011;640;48.310;11.728;2022-07-23T05:01:46;7.63;;;5.10;;
1294;SDS011;640;48.310;11.728;2022-07-23T05:04:15;5.70;;;4.63;;
1294;SDS011;640;48.310;11.728;2022-07-23T05:06:44;7.93;;;5.35;;
1294;SDS011;640;48.310;11.728;2022-07-23T05:09:13;5.65;;;4.78;;
1294;SDS011;640;48.310;11.728;2022-07-23T05:11:42;5.78;;;5.22;;
1294;SDS011;640;48.310;11.728;2022-07-23T05:14:11;7.22;;;5.22;;
1294;SDS011;640;48.310;11.728;2022-07-23T05:16:39;6.50;;;5.07;;
1294;SDS011;640;48.310;11.728;2022-07-23T05:19:07;7.07;;;5.25;;
1294;SDS011;640;48.310;11.728;2022-07-23T05:21:36;5.90;;;5.22;;
1294;SDS011;640;48.310;11.728;2022-07-23T05:24:06;5.93;;;5.32;;
1294;SDS011;640;48.310;11.728;2022-07-23T05:26:35;8.00;;;5.13;;
1294;SDS011;640;48.310;11.728;2022-07-23T05:29:03;7.63;;;5.70;;
1294;SDS011;640;48.310;11.728;2022-07-23T05:31:32;5.65;;;5.00;;
1294;SDS011;640;48.310;11.728;2022-07-23T05:34:01;7.28;;;5.68;;
1294;SDS011;640;48.310;11.728;2022-07-23T05:36:30;6.28;;;5.65;;
1294;SDS011;640;48.310;11.728;2022-07-23T05:38:59;7.75;;;5.70;;
1294;SDS011;640;48.310;11.728;2022-07-23T05:41:29;7.68;;;5.68;;
1294;SDS011;640;48.310;11.728;2022-07-23T05:43:58;5.97;;;5.38;;
1294;SDS011;640;48.310;11.728;2022-07-23T05:46:26;6.63;;;5.30;;
1294;SDS011;640;48.310;11.728;2022-07-23T05:48:54;6.50;;;5.30;;
1294;SDS011;640;48.310;11.728;2022-07-23T05:51:23;6.82;;;5.82;;
1294;SDS011;640;48.310;11.728;2022-07-23T05:53:52;6.47;;;5.72;;
1294;SDS011;640;48.310;11.728;2022-07-23T05:56:21;8.40;;;6.28;;
1294;SDS011;640;48.310;11.728;2022-07-23T05:58:51;8.80;;;5.90;;
1294;SDS011;640;48.310;11.728;2022-07-23T06:01:19;7.70;;;6.40;;
1294;SDS011;640;48.310;11.728;2022-07-23T06:03:48;9.23;;;6.13;;
1294;SDS011;640;48.310;11.728;2022-07-23T06:06:16;6.88;;;5.90;;
1294;SDS011;640;48.310;11.728;2022-07-23T06:08:45;6.93;;;6.22;;
1294;SDS011;640;48.310;11.728;2022-07-23T06:11:13;7.30;;;6.32;;
1294;SDS011;640;48.310;11.728;2022-07-23T06:13:42;6.60;;;5.70;;
1294;SDS011;640;48.310;11.728;2022-07-23T06:16:11;8.88;;;6.15;;
1294;SDS011;640;48.310;11.728;2022-07-23T06:18:40;9.40;;;6.22;;
1294;SDS011;640;48.310;11.728;2022-07-23T06:21:08;10.95;;;6.30;;
1294;SDS011;640;48.310;11.728;2022-07-23T06:23:56;6.90;;;6.00;;
1294;SDS011;640;48.310;11.728;2022-07-23T06:26:25;8.65;;;6.53;;
1294;SDS011;640;48.310;11.728;2022-07-23T06:28:53;9.60;;;6.32;;
1294;SDS011;640;48.310;11.728;2022-07-23T06:31:23;8.57;;;6.57;;
1294;SDS011;640;48.310;11.728;2022-07-23T06:33:51;8.77;;;6.80;;
1294;SDS011;640;48.310;11.728;2022-07-23T06:36:19;8.43;;;6.68;;
1294;SDS011;640;48.310;11.728;2022-07-23T06:38:48;8.35;;;6.20;;
1294;SDS011;640;48.310;11.728;2022-07-23T06:41:17;8.82;;;6.45;;
1294;SDS011;640;48.310;11.728;2022-07-23T06:43:46;7.68;;;6.50;;
1294;SDS011;640;48.310;11.728;2022-07-23T06:46:14;9.90;;;7.28;;
1294;SDS011;640;48.310;11.728;2022-07-23T06:48:44;7.80;;;6.93;;
1294;SDS011;640;48.310;11.728;2022-07-23T06:51:13;11.70;;;7.22;;
1294;SDS011;640;48.310;11.728;2022-07-23T06:53:41;12.25;;;7.43;;
1294;SDS011;640;48.310;11.728;2022-07-23T06:56:09;10.63;;;7.10;;
1294;SDS011;640;48.310;11.728;2022-07-23T06:58:38;9.43;;;7.18;;
1294;SDS011;640;48.310;11.728;2022-07-23T07:01:06;8.73;;;7.18;;
1294;SDS011;640;48.310;11.728;2022-07-23T07:03:35;10.30;;;6.95;;
1294;SDS011;640;48.310;11.728;2022-07-23T07:06:05;10.23;;;7.28;;
1294;SDS011;640;48.310;11.728;2022-07-23T07:08:33;8.52;;;7.15;;
1294;SDS011;640;48.310;11.728;2022-07-23T07:11:01;8.93;;;7.03;;
1294;SDS011;640;48.310;11.728;2022-07-23T07:13:30;10.13;;;6.70;;
1294;SDS011;640;48.310;11.728;2022-07-23T07:15:58;8.15;;;7.13;;
1294;SDS011;640;48.310;11.728;2022-07-23T07:18:26;7.90;;;6.72;;
1294;SDS011;640;48.310;11.728;2022-07-23T07:20:55;10.35;;;7.57;;
1294;SDS011;640;48.310;11.728;2022-07-23T07:23:25;10.40;;;6.83;;
1294;SDS011;640;48.310;11.728;2022-07-23T07:25:54;8.88;;;7.97;;
1294;SDS011;640;48.310;11.728;2022-07-23T07:28:22;9.60;;;7.78;;
1294;SDS011;640;48.310;11.728;2022-07-23T07:30:50;8.70;;;7.20;;
1294;SDS011;640;48.310;11.728;2022-07-23T07:33:19;9.25;;;7.90;;
1294;SDS011;640;48.310;11.728;2022-07-23T07:35:47;8.55;;;7.68;;
1294;SDS011;640;48.310;11.728;2022-07-23T07:38:16;9.13;;;8.13;;
1294;SDS011;640;48.310;11.728;2022-07-23T07:40:45;8.40;;;7.55;;
1294;SDS011;640;48.310;11.728;2022-07-23T07:43:14;8.80;;;7.55;;
1294;SDS011;640;48.310;11.728;2022-07-23T07:45:43;9.43;;;7.75;;
1294;SDS011;640;48.310;11.728;2022-07-23T07:48:11;9.15;;;8.20;;
1294;SDS011;640;48.310;11.728;2022-07-23T07:50:39;9.90;;;8.23;;
1294;SDS011;640;48.310;11.728;2022-07-23T07:53:08;12.55;;;8.15;;
1294;SDS011;640;48.310;11.728;2022-07-23T07:55:36;10.05;;;8.30;;
1294;SDS011;640;48.310;11.728;2022-07-23T07:58:07;9.30;;;7.72;;
1294;SDS011;640;48.310;11.728;2022-07-23T08:00:35;10.80;;;8.75;;
1294;SDS011;640;48.310;11.728;2022-07-23T08:03:04;9.75;;;8.18;;
1294;SDS011;640;48.310;11.728;2022-07-23T08:05:32;11.13;;;7.70;;
1294;SDS011;640;48.310;11.728;2022-07-23T08:08:01;10.93;;;8.07;;
1294;SDS011;640;48.310;11.728;2022-07-23T08:10:29;8.70;;;7.88;;
1294;SDS011;640;48.310;11.728;2022-07-23T08:12:58;11.40;;;7.97;;
1294;SDS011;640;48.310;11.728;2022-07-23T08:15:29;9.25;;;8.30;;
1294;SDS011;640;48.310;11.728;2022-07-23T08:20:26;9.48;;;8.18;;
1294;SDS011;640;48.310;11.728;2022-07-23T08:22:55;9.40;;;8.40;;
1294;SDS011;640;48.310;11.728;2022-07-23T08:25:25;9.23;;;8.32;;
1294;SDS011;640;48.310;11.728;2022-07-23T08:27:54;10.38;;;8.57;;
1294;SDS011;640;48.310;11.728;2022-07-23T08:30:24;12.70;;;8.93;;
1294;SDS011;640;48.310;11.728;2022-07-23T08:32:55;9.48;;;8.30;;
1294;SDS011;640;48.310;11.728;2022-07-23T08:35:27;11.27;;;8.90;;
1294;SDS011;640;48.310;11.728;2022-07-23T08:37:57;9.00;;;8.10;;
1294;SDS011;640;48.310;11.728;2022-07-23T08:40:26;9.27;;;8.30;;
1294;SDS011;640;48.310;11.728;2022-07-23T08:45:25;9.05;;;8.10;;
1294;SDS011;640;48.310;11.728;2022-07-23T08:47:56;10.10;;;8.70;;
1294;SDS011;640;48.310;11.728;2022-07-23T08:50:28;10.15;;;8.70;;
1294;SDS011;640;48.310;11.728;2022-07-23T08:52:57;13.00;;;8.65;;
1294;SDS011;640;48.310;11.728;2022-07-23T08:55:27;10.13;;;9.00;;
1294;SDS011;640;48.310;11.728;2022-07-23T08:57:55;10.07;;;9.07;;
1294;SDS011;640;48.310;11.728;2022-07-23T09:00:23;10.05;;;8.95;;
1294;SDS011;640;48.310;11.728;2022-07-23T09:02:52;10.52;;;9.02;;
1294;SDS011;640;48.310;11.728;2022-07-23T09:05:22;10.43;;;9.32;;
1294;SDS011;640;48.310;11.728;2022-07-23T09:10:42;9.23;;;8.35;;
1294;SDS011;640;48.310;11.728;2022-07-23T09:13:28;12.35;;;9.25;;
1294;SDS011;640;48.310;11.728;2022-07-23T09:15:58;10.10;;;8.32;;
1294;SDS011;640;48.310;11.728;2022-07-23T09:18:28;10.68;;;9.60;;
1294;SDS011;640;48.310;11.728;2022-07-23T09:21:09;8.75;;;7.85;;
1294;SDS011;640;48.310;11.728;2022-07-23T09:23:49;11.68;;;8.93;;
1294;SDS011;640;48.310;11.728;2022-07-23T09:29:02;13.00;;;8.18;;
1294;SDS011;640;48.310;11.728;2022-07-23T09:31:43;12.93;;;8.85;;
1294;SDS011;640;48.310;11.728;2022-07-23T09:34:14;9.02;;;8.02;;
1294;SDS011;640;48.310;11.728;2022-07-23T09:36:45;10.50;;;8.32;;
1294;SDS011;640;48.310;11.728;2022-07-23T09:39:16;8.98;;;7.72;;
1294;SDS011;640;48.310;11.728;2022-07-23T09:41:52;10.75;;;7.90;;
1294;SDS011;640;48.310;11.728;2022-07-23T09:44:21;10.27;;;7.13;;
1294;SDS011;640;48.310;11.728;2022-07-23T09:46:57;8.68;;;7.13;;
1294;SDS011;640;48.310;11.728;2022-07-23T09:49:26;7.78;;;6.82;;
1294;SDS011;640;48.310;11.728;2022-07-23T09:51:58;9.90;;;7.15;;
1294;SDS011;640;48.310;11.728;2022-07-23T09:54:29;8.15;;;7.20;;
1294;SDS011;640;48.310;11.728;2022-07-23T09:57:00;8.85;;;7.30;;
1294;SDS011;640;48.310;11.728;2022-07-23T09:59:33;10.57;;;8.38;;
1294;SDS011;640;48.310;11.728;2022-07-23T10:02:02;9.18;;;7.45;;
1294;SDS011;640;48.310;11.728;2022-07-23T10:04:32;10.50;;;7.75;;
1294;SDS011;640;48.310;11.728;2022-07-23T10:07:05;8.60;;;7.65;;
1294;SDS011;640;48.310;11.728;2022-07-23T10:09:35;9.02;;;7.70;;
1294;SDS011;640;48.310;11.728;2022-07-23T10:12:05;8.40;;;7.25;;
1294;SDS011;640;48.310;11.728;2022-07-23T10:14:50;10.18;;;7.72;;
1294;SDS011;640;48.310;11.728;2022-07-23T10:17:19;8.55;;;7.68;;
1294;SDS011;640;48.310;11.728;2022-07-23T10:19:47;9.95;;;7.82;;
1294;SDS011;640;48.310;11.728;2022-07-23T10:22:19;10.00;;;7.80;;
1294;SDS011;640;48.310;11.728;2022-07-23T10:24:51;10.80;;;8.50;;
1294;SDS011;640;48.310;11.728;2022-07-23T10:27:39;9.32;;;8.38;;
1294;SDS011;640;48.310;11.728;2022-07-23T10:30:15;9.80;;;8.00;;
1294;SDS011;640;48.310;11.728;2022-07-23T10:32:49;9.25;;;7.50;;
1294;SDS011;640;48.310;11.728;2022-07-23T10:35:26;8.18;;;7.38;;
1294;SDS011;640;48.310;11.728;2022-07-23T10:38:02;10.13;;;7.38;;
1294;SDS011;640;48.310;11.728;2022-07-23T10:40:33;9.55;;;7.55;;
1294;SDS011;640;48.310;11.728;2022-07-23T10:43:02;9.35;;;7.60;;
1294;SDS011;640;48.310;11.728;2022-07-23T10:45:47;9.07;;;7.45;;
1294;SDS011;640;48.310;11.728;2022-07-23T10:48:17;8.30;;;7.50;;
1294;SDS011;640;48.310;11.728;2022-07-23T10:51:05;9.57;;;7.68;;
1294;SDS011;640;48.310;11.728;2022-07-23T10:53:55;8.52;;;7.72;;
1294;SDS011;640;48.310;11.728;2022-07-23T10:59:16;9.52;;;7.93;;
1294;SDS011;640;48.310;11.728;2022-07-23T11:01:45;8.45;;;6.63;;
1294;SDS011;640;48.310;11.728;2022-07-23T11:04:15;9.27;;;7.22;;
1294;SDS011;640;48.310;11.728;2022-07-23T11:09:40;6.93;;;6.13;;
1294;SDS011;640;48.310;11.728;2022-07-23T11:15:04;7.38;;;6.50;;
1294;SDS011;640;48.310;11.728;2022-07-23T11:17:34;6.65;;;5.40;;
1294;SDS011;640;48.310;11.728;2022-07-23T11:20:19;6.90;;;5.85;;
1294;SDS011;640;48.310;11.728;2022-07-23T11:22:49;9.38;;;6.20;;
1294;SDS011;640;48.310;11.728;2022-07-23T11:25:34;7.03;;;6.32;;
1294;SDS011;640;48.310;11.728;2022-07-23T11:28:11;6.90;;;6.05;;
1294;SDS011;640;48.310;11.728;2022-07-23T11:30:42;7.00;;;6.05;;
1294;SDS011;640;48.310;11.728;2022-07-23T11:33:19;5.85;;;5.20;;
1294;SDS011;640;48.310;11.728;2022-07-23T11:38:34;7.18;;;5.43;;
1294;SDS011;640;48.310;11.728;2022-07-23T11:41:06;6.20;;;5.30;;
1294;SDS011;640;48.310;11.728;2022-07-23T11:43:36;6.50;;;5.13;;
1294;SDS011;640;48.310;11.728;2022-07-23T11:46:04;6.78;;;5.72;;
1294;SDS011;640;48.310;11.728;2022-07-23T11:48:33;6.20;;;5.60;;
1294;SDS011;640;48.310;11.728;2022-07-23T11:51:07;5.88;;;5.13;;
1294;SDS011;640;48.310;11.728;2022-07-23T11:53:35;8.25;;;5.30;;
1294;SDS011;640;48.310;11.728;2022-07-23T11:56:04;7.53;;;5.28;;
1294;SDS011;640;48.310;11.728;2022-07-23T11:58:35;6.22;;;5.45;;
1294;SDS011;640;48.310;11.728;2022-07-23T12:01:03;6.45;;;5.78;;
1294;SDS011;640;48.310;11.728;2022-07-23T12:03:32;6.97;;;5.65;;
1294;SDS011;640;48.310;11.728;2022-07-23T12:06:00;7.40;;;5.88;;
1294;SDS011;640;48.310;11.728;2022-07-23T12:08:29;9.90;;;5.90;;
1294;SDS011;640;48.310;11.728;2022-07-23T12:10:57;8.57;;;6.63;;
1294;SDS011;640;48.310;11.728;2022-07-23T12:13:27;8.13;;;6.20;;
1294;SDS011;640;48.310;11.728;2022-07-23T12:15:56;8.45;;;6.43;;
1294;SDS011;640;48.310;11.728;2022-07-23T12:18:26;7.95;;;7.15;;
1294;SDS011;640;48.310;11.728;2022-07-23T12:20:56;7.45;;;6.38;;
1294;SDS011;640;48.310;11.728;2022-07-23T12:23:26;7.68;;;6.70;;
1294;SDS011;640;48.310;11.728;2022-07-23T12:25:54;8.45;;;6.97;;
1294;SDS011;640;48.310;11.728;2022-07-23T12:28:29;9.35;;;7.03;;
1294;SDS011;640;48.310;11.728;2022-07-23T12:30:59;7.80;;;6.80;;
1294;SDS011;640;48.310;11.728;2022-07-23T12:33:28;8.45;;;7.50;;
1294;SDS011;640;48.310;11.728;2022-07-23T12:38:26;9.30;;;7.47;;
1294;SDS011;640;48.310;11.728;2022-07-23T12:40:56;8.80;;;7.60;;
1294;SDS011;640;48.310;11.728;2022-07-23T12:43:26;9.50;;;7.28;;
1294;SDS011;640;48.310;11.728;2022-07-23T12:46:02;8.52;;;7.05;;
1294;SDS011;640;48.310;11.728;2022-07-23T12:48:31;9.25;;;7.10;;
1294;SDS011;640;48.310;11.728;2022-07-23T12:51:01;8.55;;;6.75;;
1294;SDS011;640;48.310;11.728;2022-07-23T12:56:01;8.50;;;6.93;;
1294;SDS011;640;48.310;11.728;2022-07-23T12:58:43;7.90;;;7.07;;
1294;SDS011;640;48.310;11.728;2022-07-23T13:01:23;7.25;;;6.55;;
1294;SDS011;640;48.310;11.728;2022-07-23T13:03:57;8.73;;;6.78;;
1294;SDS011;640;48.310;11.728;2022-07-23T13:06:28;7.90;;;7.03;;
1294;SDS011;640;48.310;11.728;2022-07-23T13:08:57;9.48;;;7.70;;
1294;SDS011;640;48.310;11.728;2022-07-23T13:11:27;9.27;;;7.10;;
1294;SDS011;640;48.310;11.728;2022-07-23T13:13:58;8.73;;;7.73;;
1294;SDS011;640;48.310;11.728;2022-07-23T13:16:28;8.13;;;7.18;;
1294;SDS011;640;48.310;11.728;2022-07-23T13:18:58;10.88;;;7.68;;
1294;SDS011;640;48.310;11.728;2022-07-23T13:21:28;7.80;;;7.00;;
1294;SDS011;640;48.310;11.728;2022-07-23T13:23:56;8.25;;;7.32;;
1294;SDS011;640;48.310;11.728;2022-07-23T13:26:25;8.02;;;7.00;;
1294;SDS011;640;48.310;11.728;2022-07-23T13:28:54;8.73;;;7.03;;
1294;SDS011;640;48.310;11.728;2022-07-23T13:31:24;7.97;;;7.18;;
1294;SDS011;640;48.310;11.728;2022-07-23T13:33:53;9.30;;;7.25;;
1294;SDS011;640;48.310;11.728;2022-07-23T13:36:21;8.02;;;7.20;;
1294;SDS011;640;48.310;11.728;2022-07-23T13:38:50;9.18;;;6.70;;
1294;SDS011;640;48.310;11.728;2022-07-23T13:41:18;8.82;;;7.22;;
1294;SDS011;640;48.310;11.728;2022-07-23T13:43:47;9.48;;;7.65;;
1294;SDS011;640;48.310;11.728;2022-07-23T13:46:15;9.30;;;7.50;;
1294;SDS011;640;48.310;11.728;2022-07-23T13:48:48;8.38;;;7.32;;
1294;SDS011;640;48.310;11.728;2022-07-23T13:53:46;12.15;;;7.25;;
1294;SDS011;640;48.310;11.728;2022-07-23T13:56:16;8.18;;;7.28;;
1294;SDS011;640;48.310;11.728;2022-07-23T13:58:44;8.88;;;7.40;;
1294;SDS011;640;48.310;11.728;2022-07-23T14:01:13;8.57;;;7.18;;
1294;SDS011;640;48.310;11.728;2022-07-23T14:03:43;9.63;;;7.70;;
1294;SDS011;640;48.310;11.728;2022-07-23T14:06:14;10.45;;;7.85;;
1294;SDS011;640;48.310;11.728;2022-07-23T14:11:11;9.27;;;7.32;;
1294;SDS011;640;48.310;11.728;2022-07-23T14:13:39;8.70;;;7.82;;
1294;SDS011;640;48.310;11.728;2022-07-23T14:16:08;8.77;;;7.68;;
1294;SDS011;640;48.310;11.728;2022-07-23T14:18:36;9.32;;;7.55;;
1294;SDS011;640;48.310;11.728;2022-07-23T14:21:05;9.55;;;7.72;;
1294;SDS011;640;48.310;11.728;2022-07-23T14:23:34;8.85;;;7.70;;
1294;SDS011;640;48.310;11.728;2022-07-23T14:28:32;10.48;;;8.35;;
1294;SDS011;640;48.310;11.728;2022-07-23T14:31:01;8.93;;;7.97;;
1294;SDS011;640;48.310;11.728;2022-07-23T14:33:30;10.18;;;7.85;;
1294;SDS011;640;48.310;11.728;2022-07-23T14:35:58;10.30;;;8.25;;
1294;SDS011;640;48.310;11.728;2022-07-23T14:38:27;8.75;;;7.85;;
1294;SDS011;640;48.310;11.728;2022-07-23T14:43:26;8.75;;;7.85;;
1294;SDS011;640;48.310;11.728;2022-07-23T14:45:55;9.13;;;8.23;;
1294;SDS011;640;48.310;11.728;2022-07-23T14:48:23;9.52;;;8.13;;
1294;SDS011;640;48.310;11.728;2022-07-23T14:50:52;8.85;;;7.93;;
1294;SDS011;640;48.310;11.728;2022-07-23T14:53:20;9.10;;;8.10;;
1294;SDS011;640;48.310;11.728;2022-07-23T14:55:51;8.98;;;8.02;;
1294;SDS011;640;48.310;11.728;2022-07-23T14:58:22;9.68;;;8.23;;
1294;SDS011;640;48.310;11.728;2022-07-23T15:00:51;11.60;;;8.75;;
1294;SDS011;640;48.310;11.728;2022-07-23T15:03:19;11.05;;;8.65;;
1294;SDS011;640;48.310;11.728;2022-07-23T15:05:48;10.48;;;8.60;;
1294;SDS011;640;48.310;11.728;2022-07-23T15:08:16;10.50;;;8.23;;
1294;SDS011;640;48.310;11.728;2022-07-23T15:10:49;9.65;;;8.68;;
1294;SDS011;640;48.310;11.728;2022-07-23T15:13:18;9.82;;;8.02;;
1294;SDS011;640;48.310;11.728;2022-07-23T15:15:47;9.20;;;8.30;;
1294;SDS011;640;48.310;11.728;2022-07-23T15:18:22;9.80;;;8.80;;
1294;SDS011;640;48.310;11.728;2022-07-23T15:20:50;11.48;;;8.18;;
1294;SDS011;640;48.310;11.728;2022-07-23T15:23:19;11.63;;;8.77;;
1294;SDS011;640;48.310;11.728;2022-07-23T15:25:47;9.30;;;8.27;;
1294;SDS011;640;48.310;11.728;2022-07-23T15:28:17;9.43;;;8.38;;
1294;SDS011;640;48.310;11.728;2022-07-23T15:30:49;10.63;;;8.90;;
1294;SDS011;640;48.310;11.728;2022-07-23T15:33:18;8.65;;;7.65;;
1294;SDS011;640;48.310;11.728;2022-07-23T15:35:48;9.13;;;8.23;;
1294;SDS011;640;48.310;11.728;2022-07-23T15:38:16;9.60;;;8.60;;
1294;SDS011;640;48.310;11.728;2022-07-23T15:40:52;10.30;;;8.80;;
1294;SDS011;640;48.310;11.728;2022-07-23T15:43:21;9.70;;;8.70;;
1294;SDS011;640;48.310;11.728;2022-07-23T15:45:53;9.20;;;8.27;;
1294;SDS011;640;48.310;11.728;2022-07-23T15:48:23;11.52;;;8.63;;
1294;SDS011;640;48.310;11.728;2022-07-23T15:50:52;9.05;;;8.15;;
1294;SDS011;640;48.310;11.728;2022-07-23T15:53:21;10.65;;;8.55;;
1294;SDS011;640;48.310;11.728;2022-07-23T15:56:03;10.43;;;9.00;;
1294;SDS011;640;48.310;11.728;2022-07-23T15:58:40;9.38;;;7.93;;
1294;SDS011;640;48.310;11.728;2022-07-23T16:01:11;9.43;;;8.32;;
1294;SDS011;640;48.310;11.728;2022-07-23T16:03:40;10.30;;;8.80;;
1294;SDS011;640;48.310;11.728;2022-07-23T16:06:10;10.48;;;8.85;;
1294;SDS011;640;48.310;11.728;2022-07-23T16:08:42;9.48;;;8.50;;
1294;SDS011;640;48.310;11.728;2022-07-23T16:11:11;9.80;;;8.80;;